sensor_id;sensor_type;location;lat;lon;timestamp;temperature;humidity
46159;DHT22;31888;44.512;26.104;2023-02-08T00:01:41;-0.70;99.90
46159;DHT22;31888;44.512;26.104;2023-02-08T00:04:06;-0.60;99.90
46159;DHT22;31888;44.512;26.104;2023-02-08T00:06:32;-0.60;99.90
46159;DHT22;31888;44.512;26.104;2023-02-08T00:08:56;-0.70;99.90
46159;DHT22;31888;44.512;26.104;2023-02-08T00:11:21;-0.80;99.90
46159;DHT22;31888;44.512;26.104;2023-02-08T00:13:45;-0.80;99.90
46159;DHT22;31888;44.512;26.104;2023-02-08T00:16:11;-1.00;99.90
46159;DHT22;31888;44.512;26.104;2023-02-08T00:18:36;-1.10;99.90
46159;DHT22;31888;44.512;26.104;2023-02-08T00:21:05;-1.10;99.90
46159;DHT22;31888;44.512;26.104;2023-02-08T00:23:31;-1.20;99.90
46159;DHT22;31888;44.512;26.104;2023-02-08T00:25:55;-1.20;99.90
46159;DHT22;31888;44.512;26.104;2023-02-08T00:28:20;-1.30;99.90
46159;DHT22;31888;44.512;26.104;2023-02-08T00:30:45;-1.30;99.90
46159;DHT22;31888;44.512;26.104;2023-02-08T00:33:09;-1.20;99.90
46159;DHT22;31888;44.512;26.104;2023-02-08T00:35:34;-1.20;99.90
46159;DHT22;31888;44.512;26.104;2023-02-08T00:37:59;-1.30;99.90
46159;DHT22;31888;44.512;26.104;2023-02-08T00:40:25;-1.30;99.90
46159;DHT22;31888;44.512;26.104;2023-02-08T00:42:52;-1.30;99.90
46159;DHT22;31888;44.512;26.104;2023-02-08T00:45:17;-1.40;99.90
46159;DHT22;31888;44.512;26.104;2023-02-08T00:47:42;-1.30;99.90
46159;DHT22;31888;44.512;26.104;2023-02-08T00:50:08;-1.40;99.90
46159;DHT22;31888;44.512;26.104;2023-02-08T00:52:33;-1.50;99.90
46159;DHT22;31888;44.512;26.104;2023-02-08T00:54:57;-1.60;99.90
46159;DHT22;31888;44.512;26.104;2023-02-08T00:57:24;-1.60;99.90
46159;DHT22;31888;44.512;26.104;2023-02-08T00:59:48;-1.70;99.90
46159;DHT22;31888;44.512;26.104;2023-02-08T01:02:13;-1.70;99.90
46159;DHT22;31888;44.512;26.104;2023-02-08T01:04:38;-1.70;99.90
46159;DHT22;31888;44.512;26.104;2023-02-08T01:07:04;-1.70;99.90
46159;DHT22;31888;44.512;26.104;2023-02-08T01:09:28;-1.70;99.90
46159;DHT22;31888;44.512;26.104;2023-02-08T01:11:53;-1.80;99.90
46159;DHT22;31888;44.512;26.104;2023-02-08T01:14:19;-1.80;99.90
46159;DHT22;31888;44.512;26.104;2023-02-08T01:16:44;-1.70;99.90
46159;DHT22;31888;44.512;26.104;2023-02-08T01:19:09;-1.70;99.90
46159;DHT22;31888;44.512;26.104;2023-02-08T01:21:36;-1.80;99.90
46159;DHT22;31888;44.512;26.104;2023-02-08T01:24:01;-1.90;99.90
46159;DHT22;31888;44.512;26.104;2023-02-08T01:26:27;-1.80;99.90
46159;DHT22;31888;44.512;26.104;2023-02-08T01:28:53;-1.80;99.90
46159;DHT22;31888;44.512;26.104;2023-02-08T01:31:21;-1.70;99.90
46159;DHT22;31888;44.512;26.104;2023-02-08T01:33:47;-1.70;99.90
46159;DHT22;31888;44.512;26.104;2023-02-08T01:36:12;-1.70;99.90
46159;DHT22;31888;44.512;26.104;2023-02-08T01:38:38;-1.70;99.90
46159;DHT22;31888;44.512;26.104;2023-02-08T01:41:04;-1.70;99.90
46159;DHT22;31888;44.512;26.104;2023-02-08T01:43:31;-1.70;99.90
46159;DHT22;31888;44.512;26.104;2023-02-08T01:45:56;-1.70;99.90
46159;DHT22;31888;44.512;26.104;2023-02-08T01:48:27;-1.70;99.90
46159;DHT22;31888;44.512;26.104;2023-02-08T01:50:56;-1.80;99.90
46159;DHT22;31888;44.512;26.104;2023-02-08T01:53:24;-1.80;99.90
46159;DHT22;31888;44.512;26.104;2023-02-08T01:55:52;-1.70;99.90
46159;DHT22;31888;44.512;26.104;2023-02-08T01:58:18;-1.70;99.90
46159;DHT22;31888;44.512;26.104;2023-02-08T02:00:43;-1.70;99.90
46159;DHT22;31888;44.512;26.104;2023-02-08T02:03:08;-1.80;99.90
46159;DHT22;31888;44.512;26.104;2023-02-08T02:05:41;-1.80;99.90
46159;DHT22;31888;44.512;26.104;2023-02-08T02:08:06;-1.80;99.90
46159;DHT22;31888;44.512;26.104;2023-02-08T02:10:33;-1.80;99.90
46159;DHT22;31888;44.512;26.104;2023-02-08T02:13:03;-1.80;99.90
46159;DHT22;31888;44.512;26.104;2023-02-08T02:15:29;-1.70;99.90
46159;DHT22;31888;44.512;26.104;2023-02-08T02:17:54;-1.80;99.90
46159;DHT22;31888;44.512;26.104;2023-02-08T02:20:23;-1.70;99.90
46159;DHT22;31888;44.512;26.104;2023-02-08T02:26:28;-1.90;99.90
46159;DHT22;31888;44.512;26.104;2023-02-08T02:29:36;-1.90;99.90
46159;DHT22;31888;44.512;26.104;2023-02-08T02:32:15;-1.90;99.90
46159;DHT22;31888;44.512;26.104;2023-02-08T02:34:48;-2.00;99.90
46159;DHT22;31888;44.512;26.104;2023-02-08T02:37:25;-2.00;99.90
46159;DHT22;31888;44.512;26.104;2023-02-08T02:40:01;-2.00;99.90
46159;DHT22;31888;44.512;26.104;2023-02-08T02:42:31;-2.00;99.90
46159;DHT22;31888;44.512;26.104;2023-02-08T02:45:18;-2.00;99.90
46159;DHT22;31888;44.512;26.104;2023-02-08T02:47:55;-2.00;99.90
46159;DHT22;31888;44.512;26.104;2023-02-08T02:50:28;-2.00;99.90
46159;DHT22;31888;44.512;26.104;2023-02-08T02:52:58;-2.00;99.90
46159;DHT22;31888;44.512;26.104;2023-02-08T02:55:24;-2.00;99.90
46159;DHT22;31888;44.512;26.104;2023-02-08T02:57:53;-1.90;99.90
46159;DHT22;31888;44.512;26.104;2023-02-08T03:00:22;-2.00;99.90
46159;DHT22;31888;44.512;26.104;2023-02-08T03:02:48;-2.00;99.90
46159;DHT22;31888;44.512;26.104;2023-02-08T03:05:14;-1.90;99.90
46159;DHT22;31888;44.512;26.104;2023-02-08T03:08:00;-2.10;99.90
46159;DHT22;31888;44.512;26.104;2023-02-08T03:10:48;-2.10;99.90
46159;DHT22;31888;44.512;26.104;2023-02-08T03:13:21;-2.10;99.90
46159;DHT22;31888;44.512;26.104;2023-02-08T03:15:58;-2.10;99.90
46159;DHT22;31888;44.512;26.104;2023-02-08T03:18:33;-2.10;99.90
46159;DHT22;31888;44.512;26.104;2023-02-08T03:21:03;-2.20;99.90
46159;DHT22;31888;44.512;26.104;2023-02-08T03:23:39;-2.30;99.90
46159;DHT22;31888;44.512;26.104;2023-02-08T03:26:09;-2.40;99.90
46159;DHT22;31888;44.512;26.104;2023-02-08T03:28:38;-2.30;99.90
46159;DHT22;31888;44.512;26.104;2023-02-08T03:31:09;-2.40;99.90
46159;DHT22;31888;44.512;26.104;2023-02-08T03:33:39;-2.40;99.90
46159;DHT22;31888;44.512;26.104;2023-02-08T03:36:15;-2.30;99.90
46159;DHT22;31888;44.512;26.104;2023-02-08T03:38:45;-2.40;99.90
46159;DHT22;31888;44.512;26.104;2023-02-08T03:41:14;-2.40;99.90
46159;DHT22;31888;44.512;26.104;2023-02-08T03:43:43;-2.40;99.90
46159;DHT22;31888;44.512;26.104;2023-02-08T03:46:12;-2.40;99.90
46159;DHT22;31888;44.512;26.104;2023-02-08T03:48:41;-2.40;99.90
46159;DHT22;31888;44.512;26.104;2023-02-08T03:51:10;-2.30;99.90
46159;DHT22;31888;44.512;26.104;2023-02-08T03:53:36;-2.20;99.90
46159;DHT22;31888;44.512;26.104;2023-02-08T03:56:07;-2.20;99.90
46159;DHT22;31888;44.512;26.104;2023-02-08T03:58:34;-2.20;99.90
46159;DHT22;31888;44.512;26.104;2023-02-08T04:01:04;-2.20;99.70
46159;DHT22;31888;44.512;26.104;2023-02-08T04:03:31;-2.20;99.30
46159;DHT22;31888;44.512;26.104;2023-02-08T04:05:56;-2.30;99.20
46159;DHT22;31888;44.512;26.104;2023-02-08T04:08:22;-2.40;99.10
46159;DHT22;31888;44.512;26.104;2023-02-08T04:10:47;-2.40;98.80
46159;DHT22;31888;44.512;26.104;2023-02-08T04:13:11;-2.40;98.50
46159;DHT22;31888;44.512;26.104;2023-02-08T04:15:36;-2.40;98.40
46159;DHT22;31888;44.512;26.104;2023-02-08T04:18:00;-2.40;98.10
46159;DHT22;31888;44.512;26.104;2023-02-08T04:20:25;-2.50;98.30
46159;DHT22;31888;44.512;26.104;2023-02-08T04:22:49;-2.50;98.00
46159;DHT22;31888;44.512;26.104;2023-02-08T04:25:15;-2.60;98.10
46159;DHT22;31888;44.512;26.104;2023-02-08T04:27:40;-2.60;98.00
46159;DHT22;31888;44.512;26.104;2023-02-08T04:30:05;-2.60;97.80
46159;DHT22;31888;44.512;26.104;2023-02-08T04:32:30;-2.70;97.80
46159;DHT22;31888;44.512;26.104;2023-02-08T04:34:54;-2.70;97.90
46159;DHT22;31888;44.512;26.104;2023-02-08T04:37:19;-2.60;98.00
46159;DHT22;31888;44.512;26.104;2023-02-08T04:39:43;-2.70;97.80
46159;DHT22;31888;44.512;26.104;2023-02-08T04:42:09;-2.70;97.90
46159;DHT22;31888;44.512;26.104;2023-02-08T04:44:33;-2.80;97.70
46159;DHT22;31888;44.512;26.104;2023-02-08T04:46:58;-2.80;97.90
46159;DHT22;31888;44.512;26.104;2023-02-08T04:49:23;-2.80;97.60
46159;DHT22;31888;44.512;26.104;2023-02-08T04:51:47;-2.80;97.70
46159;DHT22;31888;44.512;26.104;2023-02-08T04:54:11;-2.80;97.30
46159;DHT22;31888;44.512;26.104;2023-02-08T04:56:36;-2.80;97.60
46159;DHT22;31888;44.512;26.104;2023-02-08T04:59:02;-2.90;97.50
46159;DHT22;31888;44.512;26.104;2023-02-08T05:01:27;-2.90;97.60
46159;DHT22;31888;44.512;26.104;2023-02-08T05:03:51;-2.90;97.30
46159;DHT22;31888;44.512;26.104;2023-02-08T05:06:18;-2.90;97.40
46159;DHT22;31888;44.512;26.104;2023-02-08T05:08:43;-2.90;97.20
46159;DHT22;31888;44.512;26.104;2023-02-08T05:11:07;-2.80;97.40
46159;DHT22;31888;44.512;26.104;2023-02-08T05:13:32;-2.80;96.70
46159;DHT22;31888;44.512;26.104;2023-02-08T05:15:58;-2.80;96.70
46159;DHT22;31888;44.512;26.104;2023-02-08T05:18:22;-2.70;96.40
46159;DHT22;31888;44.512;26.104;2023-02-08T05:20:53;-2.70;96.10
46159;DHT22;31888;44.512;26.104;2023-02-08T05:23:18;-2.60;95.40
46159;DHT22;31888;44.512;26.104;2023-02-08T05:25:42;-2.70;95.50
46159;DHT22;31888;44.512;26.104;2023-02-08T05:28:07;-2.60;95.30
46159;DHT22;31888;44.512;26.104;2023-02-08T05:30:31;-2.50;94.90
46159;DHT22;31888;44.512;26.104;2023-02-08T05:32:57;-2.50;94.50
46159;DHT22;31888;44.512;26.104;2023-02-08T05:35:21;-2.40;94.10
46159;DHT22;31888;44.512;26.104;2023-02-08T05:37:46;-2.30;94.00
46159;DHT22;31888;44.512;26.104;2023-02-08T05:40:10;-2.30;93.50
46159;DHT22;31888;44.512;26.104;2023-02-08T05:42:35;-2.40;93.50
46159;DHT22;31888;44.512;26.104;2023-02-08T05:45:00;-2.30;93.40
46159;DHT22;31888;44.512;26.104;2023-02-08T05:47:25;-2.30;93.30
46159;DHT22;31888;44.512;26.104;2023-02-08T05:49:50;-2.30;93.10
46159;DHT22;31888;44.512;26.104;2023-02-08T05:52:15;-2.30;93.00
46159;DHT22;31888;44.512;26.104;2023-02-08T05:54:39;-2.30;93.00
46159;DHT22;31888;44.512;26.104;2023-02-08T05:57:04;-2.30;92.90
46159;DHT22;31888;44.512;26.104;2023-02-08T05:59:29;-2.20;93.20
46159;DHT22;31888;44.512;26.104;2023-02-08T06:01:53;-2.20;93.10
46159;DHT22;31888;44.512;26.104;2023-02-08T06:04:18;-2.20;93.20
46159;DHT22;31888;44.512;26.104;2023-02-08T06:06:44;-2.10;93.10
46159;DHT22;31888;44.512;26.104;2023-02-08T06:09:09;-2.10;92.90
46159;DHT22;31888;44.512;26.104;2023-02-08T06:11:33;-2.10;92.70
46159;DHT22;31888;44.512;26.104;2023-02-08T06:13:58;-2.10;92.90
46159;DHT22;31888;44.512;26.104;2023-02-08T06:16:23;-2.00;92.60
46159;DHT22;31888;44.512;26.104;2023-02-08T06:18:47;-2.00;92.60
46159;DHT22;31888;44.512;26.104;2023-02-08T06:21:12;-1.90;92.40
46159;DHT22;31888;44.512;26.104;2023-02-08T06:23:38;-1.90;92.70
46159;DHT22;31888;44.512;26.104;2023-02-08T06:26:03;-1.80;92.50
46159;DHT22;31888;44.512;26.104;2023-02-08T06:28:28;-1.60;92.50
46159;DHT22;31888;44.512;26.104;2023-02-08T06:30:53;-1.50;92.30
46159;DHT22;31888;44.512;26.104;2023-02-08T06:33:18;-1.50;92.10
46159;DHT22;31888;44.512;26.104;2023-02-08T06:35:43;-1.50;92.10
46159;DHT22;31888;44.512;26.104;2023-02-08T06:38:08;-1.40;92.10
46159;DHT22;31888;44.512;26.104;2023-02-08T06:40:35;-1.30;91.70
46159;DHT22;31888;44.512;26.104;2023-02-08T06:42:59;-1.10;91.70
46159;DHT22;31888;44.512;26.104;2023-02-08T06:45:24;-0.80;91.70
46159;DHT22;31888;44.512;26.104;2023-02-08T06:47:48;-0.50;90.90
46159;DHT22;31888;44.512;26.104;2023-02-08T06:50:13;-0.30;90.60
46159;DHT22;31888;44.512;26.104;2023-02-08T06:52:40;-0.20;90.10
46159;DHT22;31888;44.512;26.104;2023-02-08T06:55:05;0.00;90.30
46159;DHT22;31888;44.512;26.104;2023-02-08T06:57:31;0.10;89.60
46159;DHT22;31888;44.512;26.104;2023-02-08T06:59:56;0.20;89.30
46159;DHT22;31888;44.512;26.104;2023-02-08T07:02:21;0.40;88.70
46159;DHT22;31888;44.512;26.104;2023-02-08T07:04:46;0.60;87.70
46159;DHT22;31888;44.512;26.104;2023-02-08T07:07:11;0.80;86.60
46159;DHT22;31888;44.512;26.104;2023-02-08T07:09:36;1.00;86.10
46159;DHT22;31888;44.512;26.104;2023-02-08T07:12:01;0.40;85.40
46159;DHT22;31888;44.512;26.104;2023-02-08T07:14:29;0.10;86.00
46159;DHT22;31888;44.512;26.104;2023-02-08T07:16:54;0.00;86.70
46159;DHT22;31888;44.512;26.104;2023-02-08T07:19:18;0.00;87.50
46159;DHT22;31888;44.512;26.104;2023-02-08T07:21:43;0.00;87.30
46159;DHT22;31888;44.512;26.104;2023-02-08T07:24:07;-0.30;88.00
46159;DHT22;31888;44.512;26.104;2023-02-08T07:26:32;-0.20;88.00
46159;DHT22;31888;44.512;26.104;2023-02-08T07:28:57;-0.30;88.80
46159;DHT22;31888;44.512;26.104;2023-02-08T07:31:24;-0.20;88.10
46159;DHT22;31888;44.512;26.104;2023-02-08T07:33:48;-0.30;87.90
46159;DHT22;31888;44.512;26.104;2023-02-08T07:36:13;-0.40;88.30
46159;DHT22;31888;44.512;26.104;2023-02-08T07:38:38;-0.40;88.90
46159;DHT22;31888;44.512;26.104;2023-02-08T07:41:03;-0.50;89.00
46159;DHT22;31888;44.512;26.104;2023-02-08T07:43:28;-0.50;88.50
46159;DHT22;31888;44.512;26.104;2023-02-08T07:45:55;-0.40;88.80
46159;DHT22;31888;44.512;26.104;2023-02-08T07:48:21;-0.60;89.10
46159;DHT22;31888;44.512;26.104;2023-02-08T07:50:46;-0.60;89.60
46159;DHT22;31888;44.512;26.104;2023-02-08T07:53:11;-0.50;89.00
46159;DHT22;31888;44.512;26.104;2023-02-08T07:55:35;-0.60;88.80
46159;DHT22;31888;44.512;26.104;2023-02-08T07:58:00;-0.60;89.20
46159;DHT22;31888;44.512;26.104;2023-02-08T08:00:25;-0.60;88.90
46159;DHT22;31888;44.512;26.104;2023-02-08T08:02:49;-0.60;90.10
46159;DHT22;31888;44.512;26.104;2023-02-08T08:05:15;-0.50;90.00
46159;DHT22;31888;44.512;26.104;2023-02-08T08:07:40;-0.50;90.60
46159;DHT22;31888;44.512;26.104;2023-02-08T08:10:05;-0.50;91.00
46159;DHT22;31888;44.512;26.104;2023-02-08T08:12:29;-0.70;91.50
46159;DHT22;31888;44.512;26.104;2023-02-08T08:14:54;-0.70;92.00
46159;DHT22;31888;44.512;26.104;2023-02-08T08:17:19;-0.50;92.10
46159;DHT22;31888;44.512;26.104;2023-02-08T08:19:43;-0.30;92.10
46159;DHT22;31888;44.512;26.104;2023-02-08T08:22:10;-0.10;91.80
46159;DHT22;31888;44.512;26.104;2023-02-08T08:24:34;-0.30;91.70
46159;DHT22;31888;44.512;26.104;2023-02-08T08:26:59;-0.50;92.10
46159;DHT22;31888;44.512;26.104;2023-02-08T08:29:26;-0.40;91.40
46159;DHT22;31888;44.512;26.104;2023-02-08T08:31:51;0.00;91.50
46159;DHT22;31888;44.512;26.104;2023-02-08T08:34:16;-0.10;91.30
46159;DHT22;31888;44.512;26.104;2023-02-08T08:36:41;0.10;90.90
46159;DHT22;31888;44.512;26.104;2023-02-08T08:39:08;0.20;91.20
46159;DHT22;31888;44.512;26.104;2023-02-08T08:41:32;0.40;91.10
46159;DHT22;31888;44.512;26.104;2023-02-08T08:43:59;0.30;91.20
46159;DHT22;31888;44.512;26.104;2023-02-08T08:46:24;0.10;92.40
46159;DHT22;31888;44.512;26.104;2023-02-08T08:48:48;0.00;92.30
46159;DHT22;31888;44.512;26.104;2023-02-08T08:51:13;0.20;92.50
46159;DHT22;31888;44.512;26.104;2023-02-08T08:53:38;0.30;93.30
46159;DHT22;31888;44.512;26.104;2023-02-08T08:56:04;0.50;92.60
46159;DHT22;31888;44.512;26.104;2023-02-08T08:58:29;0.70;93.00
46159;DHT22;31888;44.512;26.104;2023-02-08T09:00:55;0.80;93.00
46159;DHT22;31888;44.512;26.104;2023-02-08T09:03:20;0.60;93.80
46159;DHT22;31888;44.512;26.104;2023-02-08T09:05:45;0.70;93.60
46159;DHT22;31888;44.512;26.104;2023-02-08T09:08:10;0.70;93.90
46159;DHT22;31888;44.512;26.104;2023-02-08T09:10:35;0.90;93.30
46159;DHT22;31888;44.512;26.104;2023-02-08T09:13:02;0.90;93.50
46159;DHT22;31888;44.512;26.104;2023-02-08T09:15:26;1.00;93.50
46159;DHT22;31888;44.512;26.104;2023-02-08T09:17:51;0.90;94.20
46159;DHT22;31888;44.512;26.104;2023-02-08T09:20:16;0.80;94.60
46159;DHT22;31888;44.512;26.104;2023-02-08T09:22:50;0.80;95.10
46159;DHT22;31888;44.512;26.104;2023-02-08T09:25:31;0.60;96.00
46159;DHT22;31888;44.512;26.104;2023-02-08T09:27:56;0.70;96.90
46159;DHT22;31888;44.512;26.104;2023-02-08T09:30:22;0.60;96.60
46159;DHT22;31888;44.512;26.104;2023-02-08T09:32:47;0.60;97.50
46159;DHT22;31888;44.512;26.104;2023-02-08T09:35:11;0.50;97.90
46159;DHT22;31888;44.512;26.104;2023-02-08T09:37:37;0.60;98.10
46159;DHT22;31888;44.512;26.104;2023-02-08T09:40:02;0.70;98.20
46159;DHT22;31888;44.512;26.104;2023-02-08T09:42:34;0.70;99.00
46159;DHT22;31888;44.512;26.104;2023-02-08T09:48:25;0.90;99.90
46159;DHT22;31888;44.512;26.104;2023-02-08T09:50:55;1.10;99.90
46159;DHT22;31888;44.512;26.104;2023-02-08T09:53:23;1.20;99.30
46159;DHT22;31888;44.512;26.104;2023-02-08T09:55:50;1.40;99.90
46159;DHT22;31888;44.512;26.104;2023-02-08T09:58:23;1.70;99.60
46159;DHT22;31888;44.512;26.104;2023-02-08T10:00:51;1.60;99.30
46159;DHT22;31888;44.512;26.104;2023-02-08T10:03:34;1.40;98.50
46159;DHT22;31888;44.512;26.104;2023-02-08T10:05:59;1.50;99.10
46159;DHT22;31888;44.512;26.104;2023-02-08T10:08:26;1.50;99.50
46159;DHT22;31888;44.512;26.104;2023-02-08T10:11:03;1.50;99.90
46159;DHT22;31888;44.512;26.104;2023-02-08T10:13:50;1.70;99.60
46159;DHT22;31888;44.512;26.104;2023-02-08T10:16:32;1.60;99.90
46159;DHT22;31888;44.512;26.104;2023-02-08T10:19:06;1.70;99.90
46159;DHT22;31888;44.512;26.104;2023-02-08T10:21:44;1.60;99.60
46159;DHT22;31888;44.512;26.104;2023-02-08T10:24:28;1.30;99.90
46159;DHT22;31888;44.512;26.104;2023-02-08T10:27:03;1.20;99.80
46159;DHT22;31888;44.512;26.104;2023-02-08T10:29:44;1.10;98.60
46159;DHT22;31888;44.512;26.104;2023-02-08T10:36:19;0.70;99.40
46159;DHT22;31888;44.512;26.104;2023-02-08T10:39:29;0.80;99.90
46159;DHT22;31888;44.512;26.104;2023-02-08T10:42:34;0.90;99.90
46159;DHT22;31888;44.512;26.104;2023-02-08T10:50:00;0.50;99.90
46159;DHT22;31888;44.512;26.104;2023-02-08T10:52:55;0.50;99.90
46159;DHT22;31888;44.512;26.104;2023-02-08T10:55:34;0.40;99.90
46159;DHT22;31888;44.512;26.104;2023-02-08T10:58:44;0.50;99.90
46159;DHT22;31888;44.512;26.104;2023-02-08T11:06:35;1.10;99.90
46159;DHT22;31888;44.512;26.104;2023-02-08T11:10:22;1.40;99.90
46159;DHT22;31888;44.512;26.104;2023-02-08T11:16:57;1.40;99.40
46159;DHT22;31888;44.512;26.104;2023-02-08T11:19:38;1.80;98.70
46159;DHT22;31888;44.512;26.104;2023-02-08T11:22:26;1.80;96.90
46159;DHT22;31888;44.512;26.104;2023-02-08T11:25:32;1.50;97.60
46159;DHT22;31888;44.512;26.104;2023-02-08T11:28:25;1.50;97.50
46159;DHT22;31888;44.512;26.104;2023-02-08T11:31:08;1.40;97.10
46159;DHT22;31888;44.512;26.104;2023-02-08T11:34:01;1.50;97.30
46159;DHT22;31888;44.512;26.104;2023-02-08T11:36:48;1.20;97.20
46159;DHT22;31888;44.512;26.104;2023-02-08T11:39:22;1.30;97.90
46159;DHT22;31888;44.512;26.104;2023-02-08T11:42:26;1.20;97.70
46159;DHT22;31888;44.512;26.104;2023-02-08T11:45:26;1.20;97.70
46159;DHT22;31888;44.512;26.104;2023-02-08T11:48:22;1.40;95.90
46159;DHT22;31888;44.512;26.104;2023-02-08T11:51:26;1.30;96.60
46159;DHT22;31888;44.512;26.104;2023-02-08T11:53:55;1.10;96.70
46159;DHT22;31888;44.512;26.104;2023-02-08T11:56:33;1.30;97.00
46159;DHT22;31888;44.512;26.104;2023-02-08T11:59:30;1.40;96.70
46159;DHT22;31888;44.512;26.104;2023-02-08T12:02:27;1.40;96.50
46159;DHT22;31888;44.512;26.104;2023-02-08T12:05:11;1.40;96.20
46159;DHT22;31888;44.512;26.104;2023-02-08T12:08:12;1.30;96.40
46159;DHT22;31888;44.512;26.104;2023-02-08T12:10:56;1.50;95.40
46159;DHT22;31888;44.512;26.104;2023-02-08T12:13:37;1.40;95.70
46159;DHT22;31888;44.512;26.104;2023-02-08T12:16:15;1.30;95.70
46159;DHT22;31888;44.512;26.104;2023-02-08T12:19:18;1.50;95.70
46159;DHT22;31888;44.512;26.104;2023-02-08T12:21:55;1.70;94.80
46159;DHT22;31888;44.512;26.104;2023-02-08T12:24:24;1.90;94.90
46159;DHT22;31888;44.512;26.104;2023-02-08T12:27:04;2.10;94.30
46159;DHT22;31888;44.512;26.104;2023-02-08T12:29:40;1.90;93.90
46159;DHT22;31888;44.512;26.104;2023-02-08T12:32:28;1.80;94.40
46159;DHT22;31888;44.512;26.104;2023-02-08T12:35:10;1.80;94.40
46159;DHT22;31888;44.512;26.104;2023-02-08T12:37:50;1.80;94.40
46159;DHT22;31888;44.512;26.104;2023-02-08T12:40:43;2.00;94.60
46159;DHT22;31888;44.512;26.104;2023-02-08T12:43:26;2.20;94.70
46159;DHT22;31888;44.512;26.104;2023-02-08T12:46:19;2.20;94.40
46159;DHT22;31888;44.512;26.104;2023-02-08T12:49:06;2.30;93.40
46159;DHT22;31888;44.512;26.104;2023-02-08T12:51:37;2.10;92.90
46159;DHT22;31888;44.512;26.104;2023-02-08T12:54:08;1.80;93.10
46159;DHT22;31888;44.512;26.104;2023-02-08T12:56:36;1.70;93.40
46159;DHT22;31888;44.512;26.104;2023-02-08T12:59:04;1.90;92.90
46159;DHT22;31888;44.512;26.104;2023-02-08T13:01:40;1.90;92.40
46159;DHT22;31888;44.512;26.104;2023-02-08T13:04:10;1.70;92.60
46159;DHT22;31888;44.512;26.104;2023-02-08T13:06:40;1.50;92.70
46159;DHT22;31888;44.512;26.104;2023-02-08T13:09:11;1.60;92.00
46159;DHT22;31888;44.512;26.104;2023-02-08T13:11:41;1.60;91.60
46159;DHT22;31888;44.512;26.104;2023-02-08T13:14:10;1.50;92.10
46159;DHT22;31888;44.512;26.104;2023-02-08T13:16:38;1.60;92.00
46159;DHT22;31888;44.512;26.104;2023-02-08T13:19:22;1.60;91.60
46159;DHT22;31888;44.512;26.104;2023-02-08T13:21:48;1.70;91.50
46159;DHT22;31888;44.512;26.104;2023-02-08T13:24:27;1.80;91.40
46159;DHT22;31888;44.512;26.104;2023-02-08T13:26:53;1.80;91.20
46159;DHT22;31888;44.512;26.104;2023-02-08T13:29:19;1.50;90.60
46159;DHT22;31888;44.512;26.104;2023-02-08T13:31:47;1.50;90.70
46159;DHT22;31888;44.512;26.104;2023-02-08T13:34:19;1.50;90.80
46159;DHT22;31888;44.512;26.104;2023-02-08T13:36:50;1.60;90.50
46159;DHT22;31888;44.512;26.104;2023-02-08T13:39:33;1.60;91.10
46159;DHT22;31888;44.512;26.104;2023-02-08T13:41:59;1.50;90.50
46159;DHT22;31888;44.512;26.104;2023-02-08T13:44:28;1.50;90.60
46159;DHT22;31888;44.512;26.104;2023-02-08T13:46:54;1.50;90.70
46159;DHT22;31888;44.512;26.104;2023-02-08T13:49:42;1.40;90.10
46159;DHT22;31888;44.512;26.104;2023-02-08T13:52:08;1.10;90.50
46159;DHT22;31888;44.512;26.104;2023-02-08T13:54:32;1.00;90.60
46159;DHT22;31888;44.512;26.104;2023-02-08T13:56:57;1.00;90.90
46159;DHT22;31888;44.512;26.104;2023-02-08T13:59:34;1.00;90.60
46159;DHT22;31888;44.512;26.104;2023-02-08T14:02:21;0.90;90.80
46159;DHT22;31888;44.512;26.104;2023-02-08T14:04:51;1.00;90.80
46159;DHT22;31888;44.512;26.104;2023-02-08T14:07:29;0.90;90.90
46159;DHT22;31888;44.512;26.104;2023-02-08T14:10:23;0.90;91.50
46159;DHT22;31888;44.512;26.104;2023-02-08T14:12:55;1.00;91.30
46159;DHT22;31888;44.512;26.104;2023-02-08T14:15:35;0.90;91.10
46159;DHT22;31888;44.512;26.104;2023-02-08T14:18:01;0.90;90.70
46159;DHT22;31888;44.512;26.104;2023-02-08T14:20:32;0.80;90.50
46159;DHT22;31888;44.512;26.104;2023-02-08T14:23:02;0.90;90.20
46159;DHT22;31888;44.512;26.104;2023-02-08T14:25:37;0.90;90.40
46159;DHT22;31888;44.512;26.104;2023-02-08T14:28:02;0.90;89.10
46159;DHT22;31888;44.512;26.104;2023-02-08T14:30:29;1.00;89.00
46159;DHT22;31888;44.512;26.104;2023-02-08T14:33:09;1.10;87.40
46159;DHT22;31888;44.512;26.104;2023-02-08T14:35:41;1.10;86.90
46159;DHT22;31888;44.512;26.104;2023-02-08T14:41:47;0.90;87.00
46159;DHT22;31888;44.512;26.104;2023-02-08T14:50:23;0.90;88.20
46159;DHT22;31888;44.512;26.104;2023-02-08T14:52:55;0.90;88.20
46159;DHT22;31888;44.512;26.104;2023-02-08T14:55:24;0.80;89.10
46159;DHT22;31888;44.512;26.104;2023-02-08T14:57:53;0.80;89.50
46159;DHT22;31888;44.512;26.104;2023-02-08T15:00:21;0.80;89.60
46159;DHT22;31888;44.512;26.104;2023-02-08T15:02:46;0.80;89.80
46159;DHT22;31888;44.512;26.104;2023-02-08T15:05:20;0.90;90.10
46159;DHT22;31888;44.512;26.104;2023-02-08T15:07:48;1.00;90.10
46159;DHT22;31888;44.512;26.104;2023-02-08T15:10:16;0.90;90.30
46159;DHT22;31888;44.512;26.104;2023-02-08T15:12:44;0.80;90.50
46159;DHT22;31888;44.512;26.104;2023-02-08T15:15:22;0.70;90.60
46159;DHT22;31888;44.512;26.104;2023-02-08T15:17:49;0.70;90.80
46159;DHT22;31888;44.512;26.104;2023-02-08T15:20:18;0.70;90.80
46159;DHT22;31888;44.512;26.104;2023-02-08T15:22:43;0.60;91.00
46159;DHT22;31888;44.512;26.104;2023-02-08T15:27:57;0.30;91.60
46159;DHT22;31888;44.512;26.104;2023-02-08T15:30:29;0.40;91.80
46159;DHT22;31888;44.512;26.104;2023-02-08T15:32:55;0.40;91.80
46159;DHT22;31888;44.512;26.104;2023-02-08T15:35:20;0.30;91.80
46159;DHT22;31888;44.512;26.104;2023-02-08T15:37:46;0.20;92.30
46159;DHT22;31888;44.512;26.104;2023-02-08T15:40:21;0.10;92.40
46159;DHT22;31888;44.512;26.104;2023-02-08T15:42:46;0.10;92.50
46159;DHT22;31888;44.512;26.104;2023-02-08T15:45:22;0.10;92.60
46159;DHT22;31888;44.512;26.104;2023-02-08T15:47:47;0.20;92.50
46159;DHT22;31888;44.512;26.104;2023-02-08T15:50:16;0.10;92.50
46159;DHT22;31888;44.512;26.104;2023-02-08T15:52:41;0.10;92.10
46159;DHT22;31888;44.512;26.104;2023-02-08T15:55:07;0.10;92.20
46159;DHT22;31888;44.512;26.104;2023-02-08T15:57:37;0.10;92.00
46159;DHT22;31888;44.512;26.104;2023-02-08T16:00:05;0.10;92.20
46159;DHT22;31888;44.512;26.104;2023-02-08T16:02:33;0.10;91.90
46159;DHT22;31888;44.512;26.104;2023-02-08T16:04:59;-0.10;91.90
46159;DHT22;31888;44.512;26.104;2023-02-08T16:07:27;-0.20;91.90
46159;DHT22;31888;44.512;26.104;2023-02-08T16:09:55;-0.30;92.20
46159;DHT22;31888;44.512;26.104;2023-02-08T16:12:22;-0.40;92.40
46159;DHT22;31888;44.512;26.104;2023-02-08T16:14:47;-0.30;92.40
46159;DHT22;31888;44.512;26.104;2023-02-08T16:17:37;-0.30;92.40
46159;DHT22;31888;44.512;26.104;2023-02-08T16:20:03;-0.30;92.40